createdAt,value
2023-01-19T00:04:07.775Z,36.10
2023-01-19T00:09:11.200Z,32.30
2023-01-19T00:14:14.200Z,28.30
2023-01-19T00:19:17.720Z,59.90
2023-01-19T00:24:21.229Z,54.60
2023-01-19T00:29:24.542Z,43.20
2023-01-19T00:34:27.849Z,22.50
2023-01-19T00:39:30.884Z,40.40
2023-01-19T00:44:34.058Z,36.30
2023-01-19T00:49:37.075Z,32.90
2023-01-19T00:54:40.172Z,39.40
2023-01-19T00:59:43.589Z,51.40
2023-01-19T01:04:46.788Z,43.40
2023-01-19T01:09:51.026Z,35.80
2023-01-19T01:14:54.335Z,27.60
2023-01-19T01:19:57.442Z,19.00
2023-01-19T01:25:00.493Z,28.70
2023-01-19T01:30:04.479Z,40.80
2023-01-19T01:35:10.207Z,39.90
2023-01-19T01:40:16.013Z,30.70
2023-01-19T01:45:38.548Z,34.00
2023-01-19T01:51:26.433Z,33.30
2023-01-19T01:56:41.807Z,28.30
2023-01-19T02:02:03.655Z,43.60
2023-01-19T02:07:26.125Z,58.00
2023-01-19T02:12:48.898Z,46.60
2023-01-19T02:17:52.116Z,41.40
2023-01-19T02:23:02.091Z,32.60
2023-01-19T02:28:05.895Z,26.60
2023-01-19T02:33:09.285Z,30.60
2023-01-19T02:38:16.470Z,32.60
2023-01-19T02:43:20.432Z,27.40
2023-01-19T02:48:23.655Z,45.60
2023-01-19T02:53:32.682Z,55.60
2023-01-19T02:59:09.401Z,48.20
2023-01-19T03:04:40.445Z,28.20
2023-01-19T03:09:57.688Z,30.60
2023-01-19T03:15:14.536Z,33.60
2023-01-19T03:20:25.585Z,30.80
2023-01-19T03:25:33.521Z,34.30
2023-01-19T03:30:46.775Z,32.20
2023-01-19T03:35:58.581Z,43.30
2023-01-19T03:41:08.391Z,53.00
2023-01-19T03:46:13.036Z,45.40
2023-01-19T03:51:17.949Z,47.10
2023-01-19T03:56:25.893Z,37.40
2023-01-19T04:01:29.090Z,34.80
2023-01-19T04:06:32.576Z,34.50
2023-01-19T04:11:35.784Z,33.70
2023-01-19T04:16:38.890Z,32.10
2023-01-19T04:21:42.049Z,58.20
2023-01-19T04:26:45.220Z,68.00
2023-01-19T04:31:48.411Z,54.70
2023-01-19T04:36:51.826Z,31.60
2023-01-19T04:41:56.475Z,37.60
2023-01-19T04:46:59.638Z,35.70
2023-01-19T04:52:02.881Z,51.10
2023-01-19T04:57:06.101Z,47.50
2023-01-19T05:02:09.118Z,56.50
2023-01-19T05:07:12.346Z,44.90
2023-01-19T05:12:16.125Z,36.40
2023-01-19T05:17:19.235Z,33.80
2023-01-19T05:22:22.545Z,28.40
2023-01-19T05:27:25.691Z,28.00
2023-01-19T05:32:28.756Z,42.40
2023-01-19T05:37:32.997Z,39.20
2023-01-19T05:42:37.288Z,38.20
2023-01-19T05:47:40.564Z,43.90
2023-01-19T05:52:43.756Z,62.60
2023-01-19T05:57:46.852Z,52.20
2023-01-19T06:02:50.369Z,45.20
2023-01-19T06:07:57.447Z,25.10
2023-01-19T06:13:00.706Z,21.90
2023-01-19T06:18:04.218Z,70.90
2023-01-19T06:23:07.297Z,59.30
2023-01-19T06:28:10.413Z,64.20
2023-01-19T06:33:13.453Z,55.30
2023-01-19T06:38:18.760Z,50.90
2023-01-19T06:43:22.858Z,36.90
2023-01-19T06:48:26.612Z,41.00
2023-01-19T06:53:30.469Z,34.90
2023-01-19T06:58:35.041Z,39.70
2023-01-19T07:03:38.845Z,26.90
2023-01-19T07:08:42.016Z,72.50
2023-01-19T07:13:51.455Z,79.00
2023-01-19T07:18:54.468Z,69.60
2023-01-19T07:23:58.220Z,60.10
2023-01-19T07:29:01.397Z,44.10
2023-01-19T07:34:04.513Z,51.20
2023-01-19T07:39:07.725Z,45.60
2023-01-19T07:44:10.747Z,46.90
2023-01-19T07:49:13.820Z,44.40
2023-01-19T07:54:17.027Z,57.00
2023-01-19T07:59:20.136Z,87.80
2023-01-19T08:04:23.269Z,72.40
2023-01-19T08:09:26.555Z,51.20
2023-01-19T08:14:29.779Z,49.80
2023-01-19T08:19:32.977Z,80.30
2023-01-19T08:24:36.190Z,62.00
2023-01-19T08:29:39.939Z,45.90
2023-01-19T08:34:43.013Z,51.30
2023-01-19T08:39:46.045Z,57.50
2023-01-19T08:44:57.566Z,61.10
2023-01-19T08:50:01.523Z,109.70
2023-01-19T08:55:06.348Z,86.40
2023-01-19T09:00:11.318Z,70.50
2023-01-19T09:05:15.264Z,66.60
2023-01-19T09:10:19.633Z,72.20
2023-01-19T09:15:22.706Z,75.40
2023-01-19T09:20:25.928Z,64.30
2023-01-19T09:25:29.120Z,76.60
2023-01-19T09:30:33.363Z,108.50
2023-01-19T09:35:38.502Z,108.90
2023-01-19T09:40:47.308Z,99.80
2023-01-19T09:51:12.504Z,72.90
2023-01-19T09:56:19.519Z,43.40
2023-01-19T10:01:47.314Z,54.60
2023-01-19T10:06:56.814Z,43.00
2023-01-19T10:12:41.838Z,44.90
2023-01-19T10:17:50.998Z,30.10
2023-01-19T10:22:59.415Z,46.30
2023-01-19T10:33:06.137Z,73.70
2023-01-19T10:38:15.304Z,84.70
2023-01-19T10:43:41.806Z,116.60
2023-01-19T10:48:50.588Z,77.60
2023-01-19T10:53:59.088Z,111.00
2023-01-19T10:59:05.905Z,95.60
2023-01-19T11:04:29.804Z,65.00
2023-01-19T11:09:32.927Z,63.30
2023-01-19T11:14:36.223Z,44.50
2023-01-19T11:19:39.845Z,54.30
2023-01-19T11:24:44.783Z,48.20
2023-01-19T11:30:19.020Z,42.90
2023-01-19T11:35:37.924Z,47.90
2023-01-19T11:40:42.766Z,49.70
2023-01-19T11:45:46.495Z,64.60
2023-01-19T11:50:50.708Z,72.80
2023-01-19T11:56:04.969Z,89.00
2023-01-19T12:01:34.361Z,56.20
2023-01-19T12:06:53.263Z,51.60
2023-01-19T12:12:06.563Z,76.90
2023-01-19T12:17:32.246Z,61.10
2023-01-19T12:22:50.932Z,61.60
2023-01-19T12:27:55.358Z,46.50
2023-01-19T12:33:21.519Z,55.60
2023-01-19T12:38:33.922Z,54.90
2023-01-19T12:43:37.028Z,64.50
2023-01-19T12:48:41.262Z,48.20
2023-01-19T12:53:56.832Z,54.50
2023-01-19T12:59:01.622Z,49.00
2023-01-19T13:04:34.305Z,75.20
2023-01-19T13:09:39.618Z,76.40
2023-01-19T13:14:44.431Z,85.30
2023-01-19T13:19:55.300Z,63.30
2023-01-19T13:25:14.178Z,131.00
2023-01-19T13:30:21.804Z,120.80
2023-01-19T13:35:25.208Z,76.50
2023-01-19T13:40:39.094Z,84.60
2023-01-19T13:45:50.686Z,53.60
2023-01-19T13:51:07.792Z,44.90
2023-01-19T13:56:22.109Z,75.10
2023-01-19T14:01:28.921Z,69.90
2023-01-19T14:06:40.834Z,54.90
2023-01-19T14:12:05.499Z,69.50
2023-01-19T14:17:23.754Z,58.50
2023-01-19T14:22:43.240Z,55.70
2023-01-19T14:27:46.464Z,52.80
2023-01-19T14:32:49.667Z,61.10
2023-01-19T14:37:53.066Z,74.00
2023-01-19T14:43:03.425Z,91.00
2023-01-19T14:48:19.572Z,73.90
2023-01-19T14:53:26.627Z,75.10
2023-01-19T14:58:33.695Z,73.30
2023-01-19T15:03:45.711Z,69.50
2023-01-19T15:08:50.573Z,79.80
2023-01-19T15:13:55.454Z,84.00
2023-01-19T15:18:58.586Z,120.40
2023-01-19T15:24:01.677Z,73.20
2023-01-19T15:29:25.260Z,128.30
2023-01-19T15:34:28.375Z,105.90
2023-01-19T15:39:32.532Z,180.10
2023-01-19T15:44:35.706Z,186.20
2023-01-19T15:49:39.126Z,112.10
2023-01-19T15:54:42.336Z,87.70
2023-01-19T15:59:45.444Z,64.70
